sensor_id;sensor_type;location;lat;lon;timestamp;P1;durP1;ratioP1;P2;durP2;ratioP2
67516;SDS011;68821;59.134;37.894;2023-05-09T00:02:09;9.55;;;1.77;;
67516;SDS011;68821;59.134;37.894;2023-05-09T00:04:35;8.73;;;1.70;;
67516;SDS011;68821;59.134;37.894;2023-05-09T00:07:01;4.38;;;1.55;;
67516;SDS011;68821;59.134;37.894;2023-05-09T00:09:27;8.77;;;2.33;;
67516;SDS011;68821;59.134;37.894;2023-05-09T00:11:54;13.52;;;2.28;;
67516;SDS011;68821;59.134;37.894;2023-05-09T00:14:20;6.63;;;2.00;;
67516;SDS011;68821;59.134;37.894;2023-05-09T00:16:46;5.22;;;1.50;;
67516;SDS011;68821;59.134;37.894;2023-05-09T00:19:13;5.68;;;1.90;;
67516;SDS011;68821;59.134;37.894;2023-05-09T00:21:39;4.90;;;1.63;;
67516;SDS011;68821;59.134;37.894;2023-05-09T00:24:05;7.47;;;1.92;;
67516;SDS011;68821;59.134;37.894;2023-05-09T00:26:31;8.35;;;1.80;;
67516;SDS011;68821;59.134;37.894;2023-05-09T00:28:57;7.35;;;1.58;;
67516;SDS011;68821;59.134;37.894;2023-05-09T00:31:23;4.72;;;1.67;;
67516;SDS011;68821;59.134;37.894;2023-05-09T00:33:49;3.70;;;1.58;;
67516;SDS011;68821;59.134;37.894;2023-05-09T00:36:15;4.22;;;1.42;;
67516;SDS011;68821;59.134;37.894;2023-05-09T00:38:41;4.43;;;1.50;;
67516;SDS011;68821;59.134;37.894;2023-05-09T00:41:07;7.78;;;1.70;;
67516;SDS011;68821;59.134;37.894;2023-05-09T00:43:33;5.38;;;1.75;;
67516;SDS011;68821;59.134;37.894;2023-05-09T00:46:00;5.50;;;1.90;;
67516;SDS011;68821;59.134;37.894;2023-05-09T00:48:26;7.03;;;1.65;;
67516;SDS011;68821;59.134;37.894;2023-05-09T00:50:52;4.68;;;1.75;;
67516;SDS011;68821;59.134;37.894;2023-05-09T00:53:19;7.63;;;1.50;;
67516;SDS011;68821;59.134;37.894;2023-05-09T00:55:45;3.17;;;1.17;;
67516;SDS011;68821;59.134;37.894;2023-05-09T00:58:12;6.13;;;1.58;;
67516;SDS011;68821;59.134;37.894;2023-05-09T01:00:38;3.78;;;1.27;;
67516;SDS011;68821;59.134;37.894;2023-05-09T01:03:05;4.38;;;1.50;;
67516;SDS011;68821;59.134;37.894;2023-05-09T01:05:37;3.35;;;1.30;;
67516;SDS011;68821;59.134;37.894;2023-05-09T01:11:20;3.95;;;1.30;;
67516;SDS011;68821;59.134;37.894;2023-05-09T01:14:04;4.05;;;1.50;;
67516;SDS011;68821;59.134;37.894;2023-05-09T01:16:42;4.10;;;1.40;;
67516;SDS011;68821;59.134;37.894;2023-05-09T01:22:21;5.55;;;1.58;;
67516;SDS011;68821;59.134;37.894;2023-05-09T01:30:15;4.70;;;1.73;;
67516;SDS011;68821;59.134;37.894;2023-05-09T01:32:43;4.28;;;1.65;;
67516;SDS011;68821;59.134;37.894;2023-05-09T01:35:14;3.05;;;1.20;;
67516;SDS011;68821;59.134;37.894;2023-05-09T01:37:42;9.55;;;1.40;;
67516;SDS011;68821;59.134;37.894;2023-05-09T01:40:14;3.95;;;1.25;;
67516;SDS011;68821;59.134;37.894;2023-05-09T01:42:54;3.85;;;1.27;;
67516;SDS011;68821;59.134;37.894;2023-05-09T01:45:24;4.50;;;1.55;;
67516;SDS011;68821;59.134;37.894;2023-05-09T01:47:51;5.00;;;1.50;;
67516;SDS011;68821;59.134;37.894;2023-05-09T01:50:18;9.90;;;1.90;;
67516;SDS011;68821;59.134;37.894;2023-05-09T01:52:46;5.25;;;1.60;;
67516;SDS011;68821;59.134;37.894;2023-05-09T01:55:14;3.88;;;1.40;;
67516;SDS011;68821;59.134;37.894;2023-05-09T01:57:42;4.07;;;1.33;;
67516;SDS011;68821;59.134;37.894;2023-05-09T02:00:09;5.60;;;1.35;;
67516;SDS011;68821;59.134;37.894;2023-05-09T02:02:38;3.70;;;1.55;;
67516;SDS011;68821;59.134;37.894;2023-05-09T02:05:07;6.75;;;1.45;;
67516;SDS011;68821;59.134;37.894;2023-05-09T02:07:35;4.65;;;1.33;;
67516;SDS011;68821;59.134;37.894;2023-05-09T02:10:01;5.00;;;1.70;;
67516;SDS011;68821;59.134;37.894;2023-05-09T02:14:55;4.18;;;1.42;;
67516;SDS011;68821;59.134;37.894;2023-05-09T02:17:21;3.80;;;1.33;;
67516;SDS011;68821;59.134;37.894;2023-05-09T02:19:47;5.03;;;1.40;;
67516;SDS011;68821;59.134;37.894;2023-05-09T02:22:13;7.00;;;1.50;;
67516;SDS011;68821;59.134;37.894;2023-05-09T02:24:41;4.38;;;1.42;;
67516;SDS011;68821;59.134;37.894;2023-05-09T02:27:09;7.43;;;1.70;;
67516;SDS011;68821;59.134;37.894;2023-05-09T02:29:42;6.57;;;1.77;;
67516;SDS011;68821;59.134;37.894;2023-05-09T02:32:13;10.43;;;1.63;;
67516;SDS011;68821;59.134;37.894;2023-05-09T02:34:41;7.90;;;1.63;;
67516;SDS011;68821;59.134;37.894;2023-05-09T02:37:08;5.10;;;1.60;;
67516;SDS011;68821;59.134;37.894;2023-05-09T02:39:35;5.38;;;1.50;;
67516;SDS011;68821;59.134;37.894;2023-05-09T02:42:05;6.47;;;1.80;;
67516;SDS011;68821;59.134;37.894;2023-05-09T02:44:33;9.45;;;1.80;;
67516;SDS011;68821;59.134;37.894;2023-05-09T02:47:00;9.90;;;2.15;;
67516;SDS011;68821;59.134;37.894;2023-05-09T02:49:29;8.23;;;2.13;;
67516;SDS011;68821;59.134;37.894;2023-05-09T02:51:55;11.15;;;2.15;;
67516;SDS011;68821;59.134;37.894;2023-05-09T02:54:21;8.27;;;2.00;;
67516;SDS011;68821;59.134;37.894;2023-05-09T02:56:47;9.25;;;1.88;;
67516;SDS011;68821;59.134;37.894;2023-05-09T02:59:14;5.70;;;1.80;;
67516;SDS011;68821;59.134;37.894;2023-05-09T03:01:40;5.65;;;1.83;;
67516;SDS011;68821;59.134;37.894;2023-05-09T03:04:07;6.82;;;1.90;;
67516;SDS011;68821;59.134;37.894;2023-05-09T03:06:33;8.40;;;1.77;;
67516;SDS011;68821;59.134;37.894;2023-05-09T03:08:59;5.50;;;1.80;;
67516;SDS011;68821;59.134;37.894;2023-05-09T03:11:25;9.27;;;1.67;;
67516;SDS011;68821;59.134;37.894;2023-05-09T03:13:51;10.63;;;2.65;;
67516;SDS011;68821;59.134;37.894;2023-05-09T03:16:17;6.20;;;1.58;;
67516;SDS011;68821;59.134;37.894;2023-05-09T03:18:43;3.78;;;1.60;;
67516;SDS011;68821;59.134;37.894;2023-05-09T03:21:09;6.10;;;1.60;;
67516;SDS011;68821;59.134;37.894;2023-05-09T03:23:35;3.35;;;1.65;;
67516;SDS011;68821;59.134;37.894;2023-05-09T03:26:01;3.72;;;1.77;;
67516;SDS011;68821;59.134;37.894;2023-05-09T03:28:27;4.75;;;1.67;;
67516;SDS011;68821;59.134;37.894;2023-05-09T03:30:54;3.50;;;1.38;;
67516;SDS011;68821;59.134;37.894;2023-05-09T03:33:20;6.68;;;1.70;;
67516;SDS011;68821;59.134;37.894;2023-05-09T03:35:46;5.82;;;1.63;;
67516;SDS011;68821;59.134;37.894;2023-05-09T03:38:12;8.48;;;1.90;;
67516;SDS011;68821;59.134;37.894;2023-05-09T03:40:38;9.85;;;2.10;;
67516;SDS011;68821;59.134;37.894;2023-05-09T03:43:04;8.43;;;1.92;;
67516;SDS011;68821;59.134;37.894;2023-05-09T03:45:31;6.20;;;1.88;;
67516;SDS011;68821;59.134;37.894;2023-05-09T03:47:57;4.50;;;2.50;;
67516;SDS011;68821;59.134;37.894;2023-05-09T03:50:23;5.88;;;1.63;;
67516;SDS011;68821;59.134;37.894;2023-05-09T03:52:50;5.65;;;1.60;;
67516;SDS011;68821;59.134;37.894;2023-05-09T03:55:16;7.43;;;1.98;;
67516;SDS011;68821;59.134;37.894;2023-05-09T03:57:42;5.00;;;1.50;;
67516;SDS011;68821;59.134;37.894;2023-05-09T04:00:09;8.90;;;1.90;;
67516;SDS011;68821;59.134;37.894;2023-05-09T04:02:35;6.72;;;1.90;;
67516;SDS011;68821;59.134;37.894;2023-05-09T04:05:01;8.73;;;2.65;;
67516;SDS011;68821;59.134;37.894;2023-05-09T04:07:28;4.55;;;1.42;;
67516;SDS011;68821;59.134;37.894;2023-05-09T04:09:54;12.00;;;2.03;;
67516;SDS011;68821;59.134;37.894;2023-05-09T04:12:22;11.88;;;2.08;;
67516;SDS011;68821;59.134;37.894;2023-05-09T04:14:49;12.05;;;2.05;;
67516;SDS011;68821;59.134;37.894;2023-05-09T04:17:16;6.60;;;1.80;;
67516;SDS011;68821;59.134;37.894;2023-05-09T04:19:43;7.78;;;1.88;;
67516;SDS011;68821;59.134;37.894;2023-05-09T04:22:12;5.07;;;1.45;;
67516;SDS011;68821;59.134;37.894;2023-05-09T04:24:38;4.25;;;1.67;;
67516;SDS011;68821;59.134;37.894;2023-05-09T04:27:04;6.57;;;1.58;;
67516;SDS011;68821;59.134;37.894;2023-05-09T04:29:30;8.65;;;2.97;;
67516;SDS011;68821;59.134;37.894;2023-05-09T04:31:56;10.77;;;1.70;;
67516;SDS011;68821;59.134;37.894;2023-05-09T04:34:23;7.13;;;1.83;;
67516;SDS011;68821;59.134;37.894;2023-05-09T04:36:51;6.35;;;1.17;;
67516;SDS011;68821;59.134;37.894;2023-05-09T04:39:17;6.70;;;2.00;;
67516;SDS011;68821;59.134;37.894;2023-05-09T04:41:44;4.30;;;1.85;;
67516;SDS011;68821;59.134;37.894;2023-05-09T04:44:17;7.88;;;2.03;;
67516;SDS011;68821;59.134;37.894;2023-05-09T04:46:43;8.63;;;2.28;;
67516;SDS011;68821;59.134;37.894;2023-05-09T04:49:09;5.70;;;1.63;;
67516;SDS011;68821;59.134;37.894;2023-05-09T04:51:35;7.80;;;1.65;;
67516;SDS011;68821;59.134;37.894;2023-05-09T04:54:01;4.55;;;1.50;;
67516;SDS011;68821;59.134;37.894;2023-05-09T04:56:28;5.32;;;1.60;;
67516;SDS011;68821;59.134;37.894;2023-05-09T04:58:54;4.63;;;1.45;;
67516;SDS011;68821;59.134;37.894;2023-05-09T05:01:20;5.85;;;1.67;;
67516;SDS011;68821;59.134;37.894;2023-05-09T05:03:47;19.60;;;6.82;;
67516;SDS011;68821;59.134;37.894;2023-05-09T05:06:13;11.68;;;1.88;;
67516;SDS011;68821;59.134;37.894;2023-05-09T05:08:39;25.63;;;3.40;;
67516;SDS011;68821;59.134;37.894;2023-05-09T05:11:05;13.18;;;2.40;;
67516;SDS011;68821;59.134;37.894;2023-05-09T05:13:31;13.35;;;3.10;;
67516;SDS011;68821;59.134;37.894;2023-05-09T05:15:57;12.38;;;2.13;;
67516;SDS011;68821;59.134;37.894;2023-05-09T05:18:23;10.73;;;2.03;;
67516;SDS011;68821;59.134;37.894;2023-05-09T05:20:49;13.38;;;2.53;;
67516;SDS011;68821;59.134;37.894;2023-05-09T05:23:15;6.82;;;1.70;;
67516;SDS011;68821;59.134;37.894;2023-05-09T05:25:42;13.75;;;1.90;;
67516;SDS011;68821;59.134;37.894;2023-05-09T05:28:08;10.98;;;2.20;;
67516;SDS011;68821;59.134;37.894;2023-05-09T05:30:34;11.52;;;2.35;;
67516;SDS011;68821;59.134;37.894;2023-05-09T05:33:00;6.82;;;2.17;;
67516;SDS011;68821;59.134;37.894;2023-05-09T05:35:26;19.00;;;2.25;;
67516;SDS011;68821;59.134;37.894;2023-05-09T05:37:53;14.20;;;2.25;;
67516;SDS011;68821;59.134;37.894;2023-05-09T05:40:20;8.07;;;2.00;;
67516;SDS011;68821;59.134;37.894;2023-05-09T05:42:46;16.02;;;2.97;;
67516;SDS011;68821;59.134;37.894;2023-05-09T05:45:12;8.52;;;1.77;;
67516;SDS011;68821;59.134;37.894;2023-05-09T05:47:38;6.45;;;1.42;;
67516;SDS011;68821;59.134;37.894;2023-05-09T05:50:04;4.68;;;1.48;;
67516;SDS011;68821;59.134;37.894;2023-05-09T05:52:32;6.47;;;1.77;;
67516;SDS011;68821;59.134;37.894;2023-05-09T05:54:58;3.53;;;1.10;;
67516;SDS011;68821;59.134;37.894;2023-05-09T05:57:25;2.72;;;1.10;;
67516;SDS011;68821;59.134;37.894;2023-05-09T05:59:51;3.40;;;1.20;;
67516;SDS011;68821;59.134;37.894;2023-05-09T06:02:17;2.78;;;1.02;;
67516;SDS011;68821;59.134;37.894;2023-05-09T06:04:43;4.97;;;1.38;;
67516;SDS011;68821;59.134;37.894;2023-05-09T06:07:09;2.85;;;1.13;;
67516;SDS011;68821;59.134;37.894;2023-05-09T06:09:38;2.78;;;1.13;;
67516;SDS011;68821;59.134;37.894;2023-05-09T06:12:04;3.42;;;1.52;;
67516;SDS011;68821;59.134;37.894;2023-05-09T06:14:31;3.53;;;1.20;;
67516;SDS011;68821;59.134;37.894;2023-05-09T06:16:57;3.50;;;1.35;;
67516;SDS011;68821;59.134;37.894;2023-05-09T06:19:24;3.28;;;1.25;;
67516;SDS011;68821;59.134;37.894;2023-05-09T06:21:50;4.10;;;1.10;;
67516;SDS011;68821;59.134;37.894;2023-05-09T06:24:16;4.75;;;1.30;;
67516;SDS011;68821;59.134;37.894;2023-05-09T06:26:43;3.08;;;1.27;;
67516;SDS011;68821;59.134;37.894;2023-05-09T06:29:09;3.85;;;1.23;;
67516;SDS011;68821;59.134;37.894;2023-05-09T06:31:35;4.88;;;1.20;;
67516;SDS011;68821;59.134;37.894;2023-05-09T06:34:06;2.55;;;1.00;;
67516;SDS011;68821;59.134;37.894;2023-05-09T06:36:32;4.05;;;1.20;;
67516;SDS011;68821;59.134;37.894;2023-05-09T06:38:59;1.85;;;0.80;;
67516;SDS011;68821;59.134;37.894;2023-05-09T06:41:25;2.78;;;1.10;;
67516;SDS011;68821;59.134;37.894;2023-05-09T06:43:52;2.67;;;1.10;;
67516;SDS011;68821;59.134;37.894;2023-05-09T06:46:17;4.93;;;1.42;;
67516;SDS011;68821;59.134;37.894;2023-05-09T06:48:44;6.85;;;1.25;;
67516;SDS011;68821;59.134;37.894;2023-05-09T06:51:10;3.85;;;1.17;;
67516;SDS011;68821;59.134;37.894;2023-05-09T06:53:36;4.70;;;1.08;;
67516;SDS011;68821;59.134;37.894;2023-05-09T06:56:02;3.13;;;1.30;;
67516;SDS011;68821;59.134;37.894;2023-05-09T06:58:29;3.13;;;1.08;;
67516;SDS011;68821;59.134;37.894;2023-05-09T07:00:55;3.88;;;1.13;;
67516;SDS011;68821;59.134;37.894;2023-05-09T07:03:21;3.08;;;1.20;;
67516;SDS011;68821;59.134;37.894;2023-05-09T07:05:47;6.55;;;1.10;;
67516;SDS011;68821;59.134;37.894;2023-05-09T07:08:13;2.67;;;1.15;;
67516;SDS011;68821;59.134;37.894;2023-05-09T07:10:40;4.63;;;1.20;;
67516;SDS011;68821;59.134;37.894;2023-05-09T07:13:06;4.50;;;0.98;;
67516;SDS011;68821;59.134;37.894;2023-05-09T07:16:01;4.70;;;1.30;;
67516;SDS011;68821;59.134;37.894;2023-05-09T07:18:27;4.03;;;1.10;;
67516;SDS011;68821;59.134;37.894;2023-05-09T07:23:20;1.42;;;0.75;;
67516;SDS011;68821;59.134;37.894;2023-05-09T07:25:46;3.38;;;1.17;;
67516;SDS011;68821;59.134;37.894;2023-05-09T07:28:13;2.15;;;1.00;;
67516;SDS011;68821;59.134;37.894;2023-05-09T07:30:39;2.85;;;1.10;;
67516;SDS011;68821;59.134;37.894;2023-05-09T07:33:06;3.03;;;0.95;;
67516;SDS011;68821;59.134;37.894;2023-05-09T07:35:32;3.05;;;1.20;;
67516;SDS011;68821;59.134;37.894;2023-05-09T07:37:58;3.30;;;1.10;;
67516;SDS011;68821;59.134;37.894;2023-05-09T07:40:24;6.80;;;1.27;;
67516;SDS011;68821;59.134;37.894;2023-05-09T07:42:50;4.22;;;1.00;;
67516;SDS011;68821;59.134;37.894;2023-05-09T07:45:19;5.45;;;2.65;;
67516;SDS011;68821;59.134;37.894;2023-05-09T07:47:45;2.30;;;1.00;;
67516;SDS011;68821;59.134;37.894;2023-05-09T07:50:11;2.25;;;1.00;;
67516;SDS011;68821;59.134;37.894;2023-05-09T07:52:37;3.55;;;1.40;;
67516;SDS011;68821;59.134;37.894;2023-05-09T07:55:03;2.63;;;1.20;;
67516;SDS011;68821;59.134;37.894;2023-05-09T07:57:30;3.35;;;1.00;;
67516;SDS011;68821;59.134;37.894;2023-05-09T07:59:56;4.88;;;1.00;;
67516;SDS011;68821;59.134;37.894;2023-05-09T08:02:22;2.88;;;0.93;;
67516;SDS011;68821;59.134;37.894;2023-05-09T08:04:48;8.07;;;4.28;;
67516;SDS011;68821;59.134;37.894;2023-05-09T08:07:14;3.90;;;1.10;;
67516;SDS011;68821;59.134;37.894;2023-05-09T08:09:41;4.15;;;1.67;;
67516;SDS011;68821;59.134;37.894;2023-05-09T08:12:07;2.53;;;1.00;;
67516;SDS011;68821;59.134;37.894;2023-05-09T08:14:33;2.90;;;0.90;;
67516;SDS011;68821;59.134;37.894;2023-05-09T08:16:59;4.35;;;1.13;;
67516;SDS011;68821;59.134;37.894;2023-05-09T08:19:25;3.40;;;1.00;;
67516;SDS011;68821;59.134;37.894;2023-05-09T08:21:51;2.80;;;1.10;;
67516;SDS011;68821;59.134;37.894;2023-05-09T08:24:18;4.32;;;0.90;;
67516;SDS011;68821;59.134;37.894;2023-05-09T08:26:44;2.05;;;0.90;;
67516;SDS011;68821;59.134;37.894;2023-05-09T08:29:10;3.33;;;0.90;;
67516;SDS011;68821;59.134;37.894;2023-05-09T08:31:36;4.82;;;1.10;;
67516;SDS011;68821;59.134;37.894;2023-05-09T08:34:02;6.68;;;1.30;;
67516;SDS011;68821;59.134;37.894;2023-05-09T08:36:28;3.60;;;1.20;;
67516;SDS011;68821;59.134;37.894;2023-05-09T08:38:55;5.03;;;1.40;;
67516;SDS011;68821;59.134;37.894;2023-05-09T08:41:23;4.88;;;1.60;;
67516;SDS011;68821;59.134;37.894;2023-05-09T08:43:53;10.00;;;1.50;;
67516;SDS011;68821;59.134;37.894;2023-05-09T08:46:29;10.27;;;1.70;;
67516;SDS011;68821;59.134;37.894;2023-05-09T08:48:58;9.50;;;1.42;;
67516;SDS011;68821;59.134;37.894;2023-05-09T08:51:25;3.60;;;1.17;;
67516;SDS011;68821;59.134;37.894;2023-05-09T08:53:52;12.80;;;3.13;;
67516;SDS011;68821;59.134;37.894;2023-05-09T08:56:18;8.35;;;1.25;;
67516;SDS011;68821;59.134;37.894;2023-05-09T08:58:54;5.53;;;1.50;;
67516;SDS011;68821;59.134;37.894;2023-05-09T09:01:21;4.45;;;1.17;;
67516;SDS011;68821;59.134;37.894;2023-05-09T09:06:16;5.88;;;1.10;;
67516;SDS011;68821;59.134;37.894;2023-05-09T09:08:43;2.40;;;1.00;;
67516;SDS011;68821;59.134;37.894;2023-05-09T09:11:14;4.78;;;1.10;;
67516;SDS011;68821;59.134;37.894;2023-05-09T09:13:41;6.05;;;1.42;;
67516;SDS011;68821;59.134;37.894;2023-05-09T09:16:11;3.42;;;1.30;;
67516;SDS011;68821;59.134;37.894;2023-05-09T09:18:44;2.97;;;1.00;;
67516;SDS011;68821;59.134;37.894;2023-05-09T09:21:13;3.17;;;0.93;;
67516;SDS011;68821;59.134;37.894;2023-05-09T09:23:44;3.03;;;1.10;;
67516;SDS011;68821;59.134;37.894;2023-05-09T09:26:14;4.68;;;1.63;;
67516;SDS011;68821;59.134;37.894;2023-05-09T09:28:45;4.80;;;1.25;;
67516;SDS011;68821;59.134;37.894;2023-05-09T09:31:18;2.60;;;1.02;;
67516;SDS011;68821;59.134;37.894;2023-05-09T09:33:45;2.40;;;1.05;;
67516;SDS011;68821;59.134;37.894;2023-05-09T09:36:12;3.10;;;1.20;;
67516;SDS011;68821;59.134;37.894;2023-05-09T09:38:39;3.90;;;1.10;;
67516;SDS011;68821;59.134;37.894;2023-05-09T09:41:08;5.68;;;1.10;;
67516;SDS011;68821;59.134;37.894;2023-05-09T09:43:37;2.70;;;0.93;;
67516;SDS011;68821;59.134;37.894;2023-05-09T09:46:04;6.28;;;1.67;;
67516;SDS011;68821;59.134;37.894;2023-05-09T09:48:31;6.25;;;1.10;;
67516;SDS011;68821;59.134;37.894;2023-05-09T09:51:03;4.82;;;1.40;;
67516;SDS011;68821;59.134;37.894;2023-05-09T09:53:38;5.00;;;1.45;;
67516;SDS011;68821;59.134;37.894;2023-05-09T09:56:06;7.55;;;1.90;;
67516;SDS011;68821;59.134;37.894;2023-05-09T09:58:33;5.88;;;1.73;;
67516;SDS011;68821;59.134;37.894;2023-05-09T10:01:06;19.73;;;2.92;;
67516;SDS011;68821;59.134;37.894;2023-05-09T10:03:35;1.88;;;0.75;;
67516;SDS011;68821;59.134;37.894;2023-05-09T10:06:02;3.40;;;1.42;;
67516;SDS011;68821;59.134;37.894;2023-05-09T10:08:28;3.08;;;1.25;;
67516;SDS011;68821;59.134;37.894;2023-05-09T10:10:55;13.25;;;1.83;;
67516;SDS011;68821;59.134;37.894;2023-05-09T10:13:23;6.20;;;1.75;;
67516;SDS011;68821;59.134;37.894;2023-05-09T10:15:51;8.80;;;1.40;;
67516;SDS011;68821;59.134;37.894;2023-05-09T10:18:18;4.80;;;1.17;;
67516;SDS011;68821;59.134;37.894;2023-05-09T10:20:50;4.45;;;1.30;;
67516;SDS011;68821;59.134;37.894;2023-05-09T10:23:17;4.30;;;1.38;;
67516;SDS011;68821;59.134;37.894;2023-05-09T10:25:53;4.68;;;1.27;;
67516;SDS011;68821;59.134;37.894;2023-05-09T10:28:40;2.90;;;1.23;;
67516;SDS011;68821;59.134;37.894;2023-05-09T10:31:14;4.35;;;1.23;;
67516;SDS011;68821;59.134;37.894;2023-05-09T10:33:48;4.13;;;1.08;;
67516;SDS011;68821;59.134;37.894;2023-05-09T10:36:16;4.60;;;1.20;;
67516;SDS011;68821;59.134;37.894;2023-05-09T10:38:48;5.88;;;1.33;;
67516;SDS011;68821;59.134;37.894;2023-05-09T10:41:15;3.75;;;1.20;;
67516;SDS011;68821;59.134;37.894;2023-05-09T10:43:43;4.82;;;1.27;;
67516;SDS011;68821;59.134;37.894;2023-05-09T10:46:10;4.65;;;1.27;;
67516;SDS011;68821;59.134;37.894;2023-05-09T10:48:37;6.10;;;1.70;;
67516;SDS011;68821;59.134;37.894;2023-05-09T10:51:05;4.35;;;1.58;;
67516;SDS011;68821;59.134;37.894;2023-05-09T10:53:42;3.90;;;1.20;;
67516;SDS011;68821;59.134;37.894;2023-05-09T10:58:50;5.30;;;1.40;;
67516;SDS011;68821;59.134;37.894;2023-05-09T11:01:36;4.20;;;1.40;;
67516;SDS011;68821;59.134;37.894;2023-05-09T11:04:10;4.07;;;1.40;;
67516;SDS011;68821;59.134;37.894;2023-05-09T11:11:56;11.98;;;1.83;;
67516;SDS011;68821;59.134;37.894;2023-05-09T11:14:42;8.27;;;1.77;;
67516;SDS011;68821;59.134;37.894;2023-05-09T11:17:11;4.65;;;1.38;;
67516;SDS011;68821;59.134;37.894;2023-05-09T11:22:20;6.55;;;2.45;;
67516;SDS011;68821;59.134;37.894;2023-05-09T11:24:52;12.93;;;2.90;;
67516;SDS011;68821;59.134;37.894;2023-05-09T11:27:27;9.55;;;2.03;;
67516;SDS011;68821;59.134;37.894;2023-05-09T11:29:54;8.50;;;2.17;;
67516;SDS011;68821;59.134;37.894;2023-05-09T11:32:31;9.60;;;3.15;;
67516;SDS011;68821;59.134;37.894;2023-05-09T11:40:20;7.38;;;1.85;;
67516;SDS011;68821;59.134;37.894;2023-05-09T11:42:48;7.90;;;1.73;;
67516;SDS011;68821;59.134;37.894;2023-05-09T11:45:18;8.63;;;2.22;;
67516;SDS011;68821;59.134;37.894;2023-05-09T11:47:45;12.90;;;1.50;;
67516;SDS011;68821;59.134;37.894;2023-05-09T11:50:13;4.45;;;1.27;;
67516;SDS011;68821;59.134;37.894;2023-05-09T11:52:40;7.10;;;1.35;;
67516;SDS011;68821;59.134;37.894;2023-05-09T11:57:35;6.22;;;1.90;;
67516;SDS011;68821;59.134;37.894;2023-05-09T12:00:05;4.65;;;1.38;;
67516;SDS011;68821;59.134;37.894;2023-05-09T12:02:34;6.68;;;1.80;;
67516;SDS011;68821;59.134;37.894;2023-05-09T12:05:05;5.28;;;1.73;;
67516;SDS011;68821;59.134;37.894;2023-05-09T12:07:35;7.90;;;1.67;;
67516;SDS011;68821;59.134;37.894;2023-05-09T12:10:06;6.55;;;2.38;;
67516;SDS011;68821;59.134;37.894;2023-05-09T12:12:34;10.60;;;2.72;;
67516;SDS011;68821;59.134;37.894;2023-05-09T12:17:34;13.50;;;3.95;;
67516;SDS011;68821;59.134;37.894;2023-05-09T12:20:00;13.63;;;2.83;;
67516;SDS011;68821;59.134;37.894;2023-05-09T12:22:29;6.05;;;1.63;;
67516;SDS011;68821;59.134;37.894;2023-05-09T12:27:22;5.68;;;1.63;;
67516;SDS011;68821;59.134;37.894;2023-05-09T12:29:51;5.80;;;1.90;;
67516;SDS011;68821;59.134;37.894;2023-05-09T12:32:17;8.15;;;2.53;;
67516;SDS011;68821;59.134;37.894;2023-05-09T12:34:43;9.82;;;2.30;;
67516;SDS011;68821;59.134;37.894;2023-05-09T12:37:15;9.60;;;2.10;;
67516;SDS011;68821;59.134;37.894;2023-05-09T12:40:04;8.35;;;2.92;;
67516;SDS011;68821;59.134;37.894;2023-05-09T12:42:30;5.22;;;1.70;;
67516;SDS011;68821;59.134;37.894;2023-05-09T12:44:56;6.05;;;1.80;;
67516;SDS011;68821;59.134;37.894;2023-05-09T12:47:29;4.45;;;1.40;;
67516;SDS011;68821;59.134;37.894;2023-05-09T12:49:57;3.60;;;1.42;;
67516;SDS011;68821;59.134;37.894;2023-05-09T12:52:23;4.80;;;1.73;;
67516;SDS011;68821;59.134;37.894;2023-05-09T12:54:51;3.95;;;1.80;;
67516;SDS011;68821;59.134;37.894;2023-05-09T12:57:21;6.65;;;2.10;;
67516;SDS011;68821;59.134;37.894;2023-05-09T12:59:49;7.88;;;2.55;;
67516;SDS011;68821;59.134;37.894;2023-05-09T13:02:15;7.20;;;2.60;;
67516;SDS011;68821;59.134;37.894;2023-05-09T13:04:42;11.73;;;3.95;;
67516;SDS011;68821;59.134;37.894;2023-05-09T13:07:08;9.73;;;2.35;;
67516;SDS011;68821;59.134;37.894;2023-05-09T13:09:35;13.30;;;2.88;;
67516;SDS011;68821;59.134;37.894;2023-05-09T13:12:02;7.50;;;2.00;;
67516;SDS011;68821;59.134;37.894;2023-05-09T13:14:28;9.70;;;3.25;;
67516;SDS011;68821;59.134;37.894;2023-05-09T13:16:55;13.20;;;3.38;;
67516;SDS011;68821;59.134;37.894;2023-05-09T13:19:21;6.13;;;1.67;;
67516;SDS011;68821;59.134;37.894;2023-05-09T13:21:47;7.50;;;2.30;;
67516;SDS011;68821;59.134;37.894;2023-05-09T13:24:13;42.03;;;9.90;;
67516;SDS011;68821;59.134;37.894;2023-05-09T13:26:39;25.48;;;6.78;;
67516;SDS011;68821;59.134;37.894;2023-05-09T13:29:05;15.27;;;4.50;;
67516;SDS011;68821;59.134;37.894;2023-05-09T13:31:32;10.20;;;2.28;;
67516;SDS011;68821;59.134;37.894;2023-05-09T13:33:58;6.28;;;1.60;;
67516;SDS011;68821;59.134;37.894;2023-05-09T13:36:24;7.20;;;1.77;;
67516;SDS011;68821;59.134;37.894;2023-05-09T13:38:50;7.38;;;1.80;;
67516;SDS011;68821;59.134;37.894;2023-05-09T13:41:16;6.40;;;2.40;;
67516;SDS011;68821;59.134;37.894;2023-05-09T13:43:46;10.07;;;3.10;;
67516;SDS011;68821;59.134;37.894;2023-05-09T13:46:12;8.95;;;2.60;;
67516;SDS011;68821;59.134;37.894;2023-05-09T13:48:39;9.65;;;3.80;;
67516;SDS011;68821;59.134;37.894;2023-05-09T13:53:32;23.15;;;6.55;;
67516;SDS011;68821;59.134;37.894;2023-05-09T13:55:58;27.95;;;7.25;;
67516;SDS011;68821;59.134;37.894;2023-05-09T13:58:24;29.48;;;7.50;;
67516;SDS011;68821;59.134;37.894;2023-05-09T14:00:50;27.95;;;12.48;;
67516;SDS011;68821;59.134;37.894;2023-05-09T14:03:16;35.75;;;12.82;;
67516;SDS011;68821;59.134;37.894;2023-05-09T14:05:42;20.75;;;7.53;;
67516;SDS011;68821;59.134;37.894;2023-05-09T14:08:08;24.45;;;8.02;;
67516;SDS011;68821;59.134;37.894;2023-05-09T14:10:35;12.88;;;4.13;;
67516;SDS011;68821;59.134;37.894;2023-05-09T14:13:01;28.35;;;7.47;;
67516;SDS011;68821;59.134;37.894;2023-05-09T14:15:27;25.30;;;6.93;;
67516;SDS011;68821;59.134;37.894;2023-05-09T14:17:54;16.83;;;4.95;;
67516;SDS011;68821;59.134;37.894;2023-05-09T14:20:21;13.60;;;4.20;;
67516;SDS011;68821;59.134;37.894;2023-05-09T14:22:47;15.50;;;4.68;;
67516;SDS011;68821;59.134;37.894;2023-05-09T14:25:13;16.88;;;5.00;;
67516;SDS011;68821;59.134;37.894;2023-05-09T14:27:39;31.50;;;7.55;;
67516;SDS011;68821;59.134;37.894;2023-05-09T14:30:06;18.55;;;4.93;;
67516;SDS011;68821;59.134;37.894;2023-05-09T14:32:33;21.88;;;4.97;;
67516;SDS011;68821;59.134;37.894;2023-05-09T14:34:59;16.80;;;4.45;;
67516;SDS011;68821;59.134;37.894;2023-05-09T14:37:25;19.83;;;4.68;;
67516;SDS011;68821;59.134;37.894;2023-05-09T14:39:51;19.38;;;5.15;;
67516;SDS011;68821;59.134;37.894;2023-05-09T14:42:17;32.20;;;8.45;;
67516;SDS011;68821;59.134;37.894;2023-05-09T14:44:44;38.47;;;8.80;;
67516;SDS011;68821;59.134;37.894;2023-05-09T14:47:11;37.17;;;10.07;;
67516;SDS011;68821;59.134;37.894;2023-05-09T14:49:37;35.92;;;10.07;;
67516;SDS011;68821;59.134;37.894;2023-05-09T14:52:04;21.02;;;5.57;;
67516;SDS011;68821;59.134;37.894;2023-05-09T14:54:30;38.30;;;10.63;;
67516;SDS011;68821;59.134;37.894;2023-05-09T14:56:57;19.42;;;7.38;;
67516;SDS011;68821;59.134;37.894;2023-05-09T14:59:23;11.45;;;4.07;;
67516;SDS011;68821;59.134;37.894;2023-05-09T15:01:50;12.07;;;3.65;;
67516;SDS011;68821;59.134;37.894;2023-05-09T15:04:17;16.33;;;5.25;;
67516;SDS011;68821;59.134;37.894;2023-05-09T15:06:43;27.42;;;6.25;;
67516;SDS011;68821;59.134;37.894;2023-05-09T15:09:10;36.33;;;9.68;;
67516;SDS011;68821;59.134;37.894;2023-05-09T15:11:37;13.93;;;4.38;;
67516;SDS011;68821;59.134;37.894;2023-05-09T15:14:04;22.65;;;5.15;;
67516;SDS011;68821;59.134;37.894;2023-05-09T15:16:30;11.75;;;3.13;;
67516;SDS011;68821;59.134;37.894;2023-05-09T15:18:56;10.68;;;2.80;;